sensor_id;sensor_type;location;lat;lon;timestamp;pressure;altitude;pressure_sealevel;temperature;humidity
40245;BME280;25963;42.694;23.600;2023-06-24T00:01:13;95216.88;;;21.62;100.00
40245;BME280;25963;42.694;23.600;2023-06-24T00:03:39;95216.25;;;21.47;100.00
40245;BME280;25963;42.694;23.600;2023-06-24T00:06:04;95223.28;;;21.42;100.00
40245;BME280;25963;42.694;23.600;2023-06-24T00:08:29;95218.09;;;21.22;100.00
40245;BME280;25963;42.694;23.600;2023-06-24T00:11:01;95201.97;;;20.93;100.00
40245;BME280;25963;42.694;23.600;2023-06-24T00:13:27;95210.91;;;20.83;100.00
40245;BME280;25963;42.694;23.600;2023-06-24T00:15:54;95208.53;;;21.11;100.00
40245;BME280;25963;42.694;23.600;2023-06-24T00:18:19;95223.63;;;21.02;100.00
40245;BME280;25963;42.694;23.600;2023-06-24T00:20:45;95196.72;;;21.12;100.00
40245;BME280;25963;42.694;23.600;2023-06-24T00:23:12;95221.78;;;21.26;100.00
40245;BME280;25963;42.694;23.600;2023-06-24T00:25:39;95211.13;;;21.21;100.00
40245;BME280;25963;42.694;23.600;2023-06-24T00:28:05;95212.34;;;21.05;100.00
40245;BME280;25963;42.694;23.600;2023-06-24T00:30:30;95205.25;;;20.85;100.00
40245;BME280;25963;42.694;23.600;2023-06-24T00:32:56;95201.44;;;20.62;100.00
40245;BME280;25963;42.694;23.600;2023-06-24T00:35:21;95189.53;;;20.73;100.00
40245;BME280;25963;42.694;23.600;2023-06-24T00:37:47;95198.69;;;21.01;100.00
40245;BME280;25963;42.694;23.600;2023-06-24T00:40:12;95202.50;;;20.95;100.00
40245;BME280;25963;42.694;23.600;2023-06-24T00:42:43;95194.41;;;20.71;100.00
40245;BME280;25963;42.694;23.600;2023-06-24T00:45:09;95190.53;;;20.43;100.00
40245;BME280;25963;42.694;23.600;2023-06-24T00:47:35;95185.59;;;20.65;100.00
40245;BME280;25963;42.694;23.600;2023-06-24T00:50:01;95189.91;;;20.95;100.00
40245;BME280;25963;42.694;23.600;2023-06-24T00:52:27;95196.97;;;20.81;100.00
40245;BME280;25963;42.694;23.600;2023-06-24T00:54:52;95202.75;;;20.98;100.00
40245;BME280;25963;42.694;23.600;2023-06-24T00:57:21;95198.59;;;20.82;100.00
40245;BME280;25963;42.694;23.600;2023-06-24T00:59:51;95196.34;;;20.94;100.00
40245;BME280;25963;42.694;23.600;2023-06-24T01:02:20;95210.53;;;21.00;100.00
40245;BME280;25963;42.694;23.600;2023-06-24T01:04:48;95210.59;;;20.90;100.00
40245;BME280;25963;42.694;23.600;2023-06-24T01:07:14;95206.81;;;20.91;100.00
40245;BME280;25963;42.694;23.600;2023-06-24T01:09:41;95207.53;;;21.02;100.00
40245;BME280;25963;42.694;23.600;2023-06-24T01:12:07;95195.28;;;20.61;100.00
40245;BME280;25963;42.694;23.600;2023-06-24T01:14:34;95196.41;;;20.50;100.00
40245;BME280;25963;42.694;23.600;2023-06-24T01:17:12;95192.94;;;20.44;100.00
40245;BME280;25963;42.694;23.600;2023-06-24T01:34:24;95191.69;;;19.87;100.00
40245;BME280;25963;42.694;23.600;2023-06-24T01:39:31;95195.94;;;19.88;100.00
40245;BME280;25963;42.694;23.600;2023-06-24T01:42:06;95192.78;;;19.76;100.00
40245;BME280;25963;42.694;23.600;2023-06-24T01:44:33;95196.16;;;20.02;100.00
40245;BME280;25963;42.694;23.600;2023-06-24T01:47:01;95193.16;;;20.14;100.00
40245;BME280;25963;42.694;23.600;2023-06-24T01:49:31;95193.97;;;20.04;100.00
40245;BME280;25963;42.694;23.600;2023-06-24T01:51:59;95194.66;;;20.25;100.00
40245;BME280;25963;42.694;23.600;2023-06-24T01:54:26;95185.78;;;19.85;100.00
40245;BME280;25963;42.694;23.600;2023-06-24T01:56:54;95194.81;;;19.99;100.00
40245;BME280;25963;42.694;23.600;2023-06-24T01:59:22;95187.22;;;19.57;100.00
40245;BME280;25963;42.694;23.600;2023-06-24T02:01:48;95190.22;;;19.35;100.00
40245;BME280;25963;42.694;23.600;2023-06-24T02:04:17;95189.41;;;19.39;100.00
40245;BME280;25963;42.694;23.600;2023-06-24T02:06:44;95173.63;;;19.38;100.00
40245;BME280;25963;42.694;23.600;2023-06-24T02:09:11;95188.63;;;19.29;100.00
40245;BME280;25963;42.694;23.600;2023-06-24T02:11:37;95188.88;;;19.37;100.00
40245;BME280;25963;42.694;23.600;2023-06-24T02:14:04;95177.97;;;19.24;100.00
40245;BME280;25963;42.694;23.600;2023-06-24T02:16:32;95193.66;;;19.46;100.00
40245;BME280;25963;42.694;23.600;2023-06-24T02:19:00;95188.06;;;19.42;100.00
40245;BME280;25963;42.694;23.600;2023-06-24T02:21:27;95194.34;;;19.87;100.00
40245;BME280;25963;42.694;23.600;2023-06-24T02:23:54;95191.06;;;20.00;100.00
40245;BME280;25963;42.694;23.600;2023-06-24T02:26:20;95206.16;;;20.30;100.00
40245;BME280;25963;42.694;23.600;2023-06-24T02:28:48;95217.66;;;20.36;100.00
40245;BME280;25963;42.694;23.600;2023-06-24T02:31:14;95218.75;;;20.30;100.00
40245;BME280;25963;42.694;23.600;2023-06-24T02:33:40;95216.84;;;20.36;100.00
40245;BME280;25963;42.694;23.600;2023-06-24T02:36:06;95223.56;;;20.33;100.00
40245;BME280;25963;42.694;23.600;2023-06-24T02:38:31;95248.72;;;20.37;100.00
40245;BME280;25963;42.694;23.600;2023-06-24T02:40:57;95255.03;;;20.62;100.00
40245;BME280;25963;42.694;23.600;2023-06-24T02:43:23;95260.97;;;20.93;100.00
40245;BME280;25963;42.694;23.600;2023-06-24T02:45:49;95274.56;;;21.07;100.00
40245;BME280;25963;42.694;23.600;2023-06-24T02:48:16;95282.28;;;20.74;100.00
40245;BME280;25963;42.694;23.600;2023-06-24T02:50:43;95278.38;;;20.56;100.00
40245;BME280;25963;42.694;23.600;2023-06-24T02:53:11;95275.44;;;20.47;100.00
40245;BME280;25963;42.694;23.600;2023-06-24T02:55:38;95276.28;;;20.43;100.00
40245;BME280;25963;42.694;23.600;2023-06-24T02:58:05;95285.09;;;20.54;100.00
40245;BME280;25963;42.694;23.600;2023-06-24T03:00:36;95280.53;;;20.49;100.00
40245;BME280;25963;42.694;23.600;2023-06-24T03:03:03;95270.97;;;20.33;100.00
40245;BME280;25963;42.694;23.600;2023-06-24T03:05:30;95272.47;;;20.04;100.00
40245;BME280;25963;42.694;23.600;2023-06-24T03:07:58;95266.94;;;19.75;100.00
40245;BME280;25963;42.694;23.600;2023-06-24T03:10:24;95265.63;;;19.42;100.00
40245;BME280;25963;42.694;23.600;2023-06-24T03:12:51;95270.16;;;19.47;100.00
40245;BME280;25963;42.694;23.600;2023-06-24T03:15:16;95278.44;;;19.81;100.00
40245;BME280;25963;42.694;23.600;2023-06-24T03:17:41;95277.28;;;20.02;100.00
40245;BME280;25963;42.694;23.600;2023-06-24T03:20:08;95291.41;;;20.13;100.00
40245;BME280;25963;42.694;23.600;2023-06-24T03:22:33;95283.91;;;20.20;100.00
40245;BME280;25963;42.694;23.600;2023-06-24T03:24:59;95286.41;;;19.86;100.00
40245;BME280;25963;42.694;23.600;2023-06-24T03:27:24;95296.00;;;20.02;100.00
40245;BME280;25963;42.694;23.600;2023-06-24T03:29:50;95287.91;;;20.23;100.00
40245;BME280;25963;42.694;23.600;2023-06-24T03:32:15;95298.53;;;20.38;100.00
40245;BME280;25963;42.694;23.600;2023-06-24T03:34:41;95290.44;;;20.48;100.00
40245;BME280;25963;42.694;23.600;2023-06-24T03:37:06;95293.13;;;20.54;100.00
40245;BME280;25963;42.694;23.600;2023-06-24T03:39:32;95301.16;;;20.54;100.00
40245;BME280;25963;42.694;23.600;2023-06-24T03:41:57;95308.66;;;21.01;100.00
40245;BME280;25963;42.694;23.600;2023-06-24T03:44:23;95310.28;;;21.36;100.00
40245;BME280;25963;42.694;23.600;2023-06-24T03:46:48;95304.34;;;21.39;100.00
40245;BME280;25963;42.694;23.600;2023-06-24T03:49:14;95322.84;;;21.41;100.00
40245;BME280;25963;42.694;23.600;2023-06-24T03:51:39;95319.75;;;21.58;100.00
40245;BME280;25963;42.694;23.600;2023-06-24T03:54:05;95317.47;;;21.70;100.00
40245;BME280;25963;42.694;23.600;2023-06-24T03:56:30;95316.94;;;21.97;100.00
40245;BME280;25963;42.694;23.600;2023-06-24T03:58:56;95314.28;;;22.16;100.00
40245;BME280;25963;42.694;23.600;2023-06-24T04:01:21;95287.16;;;22.61;100.00
40245;BME280;25963;42.694;23.600;2023-06-24T04:03:46;95312.16;;;23.83;98.68
40245;BME280;25963;42.694;23.600;2023-06-24T04:06:12;95302.88;;;24.95;89.72
40245;BME280;25963;42.694;23.600;2023-06-24T04:08:38;95299.03;;;25.77;84.97
40245;BME280;25963;42.694;23.600;2023-06-24T04:11:09;95311.47;;;26.58;79.16
40245;BME280;25963;42.694;23.600;2023-06-24T04:13:35;95300.22;;;26.99;76.08
40245;BME280;25963;42.694;23.600;2023-06-24T04:16:00;95312.16;;;26.90;77.13
40245;BME280;25963;42.694;23.600;2023-06-24T04:18:26;95309.84;;;27.70;72.55
40245;BME280;25963;42.694;23.600;2023-06-24T04:20:51;95318.41;;;28.45;67.80
40245;BME280;25963;42.694;23.600;2023-06-24T04:23:16;95311.50;;;28.98;64.97
40245;BME280;25963;42.694;23.600;2023-06-24T04:25:42;95329.16;;;29.34;63.48
40245;BME280;25963;42.694;23.600;2023-06-24T04:28:08;95323.53;;;29.72;59.18
40245;BME280;25963;42.694;23.600;2023-06-24T04:30:34;95322.59;;;30.01;56.98
40245;BME280;25963;42.694;23.600;2023-06-24T04:33:04;95325.16;;;30.31;57.04
40245;BME280;25963;42.694;23.600;2023-06-24T04:35:29;95318.44;;;30.65;56.00
40245;BME280;25963;42.694;23.600;2023-06-24T04:37:55;95326.03;;;30.60;54.29
40245;BME280;25963;42.694;23.600;2023-06-24T04:40:21;95310.66;;;30.52;53.75
40245;BME280;25963;42.694;23.600;2023-06-24T04:42:46;95308.31;;;30.05;54.69
40245;BME280;25963;42.694;23.600;2023-06-24T04:45:12;95307.38;;;29.22;57.69
40245;BME280;25963;42.694;23.600;2023-06-24T04:47:37;95307.84;;;28.52;63.18
40245;BME280;25963;42.694;23.600;2023-06-24T04:50:03;95312.03;;;28.71;63.99
40245;BME280;25963;42.694;23.600;2023-06-24T04:52:29;95314.88;;;28.95;62.49
40245;BME280;25963;42.694;23.600;2023-06-24T04:54:54;95297.88;;;28.27;65.74
40245;BME280;25963;42.694;23.600;2023-06-24T04:57:28;95308.34;;;28.75;65.77
40245;BME280;25963;42.694;23.600;2023-06-24T04:59:54;95312.97;;;28.96;64.39
40245;BME280;25963;42.694;23.600;2023-06-24T05:02:20;95317.63;;;30.03;60.52
40245;BME280;25963;42.694;23.600;2023-06-24T05:04:45;95326.47;;;29.67;59.84
40245;BME280;25963;42.694;23.600;2023-06-24T05:07:11;95321.53;;;29.82;59.85
40245;BME280;25963;42.694;23.600;2023-06-24T05:09:37;95322.63;;;30.14;61.42
40245;BME280;25963;42.694;23.600;2023-06-24T05:12:06;95328.03;;;30.01;60.15
40245;BME280;25963;42.694;23.600;2023-06-24T05:14:34;95312.13;;;29.91;59.79
40245;BME280;25963;42.694;23.600;2023-06-24T05:17:01;95320.84;;;29.51;62.13
40245;BME280;25963;42.694;23.600;2023-06-24T05:19:26;95311.59;;;29.10;63.47
40245;BME280;25963;42.694;23.600;2023-06-24T05:21:51;95314.81;;;29.67;62.90
40245;BME280;25963;42.694;23.600;2023-06-24T05:24:17;95308.19;;;28.72;62.37
40245;BME280;25963;42.694;23.600;2023-06-24T05:26:44;95301.50;;;28.39;64.95
40245;BME280;25963;42.694;23.600;2023-06-24T05:29:09;95299.47;;;28.87;66.65
40245;BME280;25963;42.694;23.600;2023-06-24T05:31:37;95296.63;;;29.04;67.71
40245;BME280;25963;42.694;23.600;2023-06-24T05:34:02;95289.81;;;29.19;64.64
40245;BME280;25963;42.694;23.600;2023-06-24T05:36:28;95290.94;;;29.51;62.82
40245;BME280;25963;42.694;23.600;2023-06-24T05:38:53;95292.69;;;29.23;61.74
40245;BME280;25963;42.694;23.600;2023-06-24T05:41:18;95285.53;;;29.51;61.53
40245;BME280;25963;42.694;23.600;2023-06-24T05:43:44;95289.28;;;28.63;65.50
40245;BME280;25963;42.694;23.600;2023-06-24T05:46:09;95275.34;;;30.06;61.61
40245;BME280;25963;42.694;23.600;2023-06-24T05:48:35;95301.09;;;30.21;56.79
40245;BME280;25963;42.694;23.600;2023-06-24T05:51:00;95299.72;;;30.15;58.19
40245;BME280;25963;42.694;23.600;2023-06-24T05:53:26;95294.94;;;29.54;62.80
40245;BME280;25963;42.694;23.600;2023-06-24T05:55:51;95292.63;;;30.22;59.74
40245;BME280;25963;42.694;23.600;2023-06-24T05:58:16;95292.50;;;29.73;60.83
40245;BME280;25963;42.694;23.600;2023-06-24T06:00:42;95292.00;;;30.05;59.54
40245;BME280;25963;42.694;23.600;2023-06-24T06:03:07;95285.34;;;29.35;61.30
40245;BME280;25963;42.694;23.600;2023-06-24T06:05:33;95274.16;;;29.70;62.60
40245;BME280;25963;42.694;23.600;2023-06-24T06:07:58;95284.66;;;30.42;56.99
40245;BME280;25963;42.694;23.600;2023-06-24T06:10:24;95274.34;;;30.23;54.95
40245;BME280;25963;42.694;23.600;2023-06-24T06:12:49;95284.78;;;30.33;55.50
40245;BME280;25963;42.694;23.600;2023-06-24T06:15:15;95273.28;;;30.77;57.04
40245;BME280;25963;42.694;23.600;2023-06-24T06:17:40;95274.06;;;30.89;56.25
40245;BME280;25963;42.694;23.600;2023-06-24T06:20:06;95268.47;;;29.30;62.09
40245;BME280;25963;42.694;23.600;2023-06-24T06:22:32;95266.72;;;29.58;59.81
40245;BME280;25963;42.694;23.600;2023-06-24T06:25:03;95269.91;;;29.61;57.85
40245;BME280;25963;42.694;23.600;2023-06-24T06:27:28;95275.97;;;29.66;56.24
40245;BME280;25963;42.694;23.600;2023-06-24T06:29:54;95276.00;;;30.15;58.29
40245;BME280;25963;42.694;23.600;2023-06-24T06:32:19;95275.94;;;30.36;58.33
40245;BME280;25963;42.694;23.600;2023-06-24T06:34:44;95278.97;;;30.71;54.39
40245;BME280;25963;42.694;23.600;2023-06-24T06:37:10;95272.97;;;30.54;55.28
40245;BME280;25963;42.694;23.600;2023-06-24T06:39:35;95281.63;;;30.43;58.62
40245;BME280;25963;42.694;23.600;2023-06-24T06:42:01;95276.59;;;30.82;52.72
40245;BME280;25963;42.694;23.600;2023-06-24T06:44:26;95279.63;;;30.93;52.40
40245;BME280;25963;42.694;23.600;2023-06-24T06:46:52;95280.16;;;30.99;51.96
40245;BME280;25963;42.694;23.600;2023-06-24T06:49:17;95288.47;;;30.90;52.51
40245;BME280;25963;42.694;23.600;2023-06-24T06:51:43;95284.50;;;31.28;52.88
40245;BME280;25963;42.694;23.600;2023-06-24T06:54:08;95287.50;;;31.51;54.05
40245;BME280;25963;42.694;23.600;2023-06-24T06:56:33;95288.97;;;30.55;54.04
40245;BME280;25963;42.694;23.600;2023-06-24T06:58:59;95280.44;;;30.57;53.77
40245;BME280;25963;42.694;23.600;2023-06-24T07:01:24;95282.19;;;30.24;55.20
40245;BME280;25963;42.694;23.600;2023-06-24T07:03:50;95282.13;;;30.12;54.87
40245;BME280;25963;42.694;23.600;2023-06-24T07:06:18;95273.66;;;30.38;58.66
40245;BME280;25963;42.694;23.600;2023-06-24T07:08:44;95275.44;;;30.71;57.24
40245;BME280;25963;42.694;23.600;2023-06-24T07:11:09;95278.16;;;30.71;57.35
40245;BME280;25963;42.694;23.600;2023-06-24T07:13:35;95281.47;;;31.17;59.61
40245;BME280;25963;42.694;23.600;2023-06-24T07:16:00;95283.69;;;30.99;56.25
40245;BME280;25963;42.694;23.600;2023-06-24T07:18:26;95285.22;;;30.60;57.40
40245;BME280;25963;42.694;23.600;2023-06-24T07:20:55;95281.00;;;31.27;56.95
40245;BME280;25963;42.694;23.600;2023-06-24T07:23:21;95276.28;;;31.68;60.08
40245;BME280;25963;42.694;23.600;2023-06-24T07:25:46;95283.81;;;31.31;58.00
40245;BME280;25963;42.694;23.600;2023-06-24T07:28:11;95286.13;;;30.64;55.59
40245;BME280;25963;42.694;23.600;2023-06-24T07:30:37;95279.50;;;30.77;57.80
40245;BME280;25963;42.694;23.600;2023-06-24T07:33:02;95280.94;;;31.11;53.20
40245;BME280;25963;42.694;23.600;2023-06-24T07:35:33;95281.22;;;30.94;57.09
40245;BME280;25963;42.694;23.600;2023-06-24T07:38:00;95275.66;;;30.66;61.83
40245;BME280;25963;42.694;23.600;2023-06-24T07:40:25;95264.91;;;30.82;56.18
40245;BME280;25963;42.694;23.600;2023-06-24T07:42:51;95278.19;;;30.59;57.31
40245;BME280;25963;42.694;23.600;2023-06-24T07:45:16;95271.16;;;30.82;59.31
40245;BME280;25963;42.694;23.600;2023-06-24T07:47:42;95273.28;;;30.89;59.85
40245;BME280;25963;42.694;23.600;2023-06-24T07:50:07;95271.25;;;31.70;56.89
40245;BME280;25963;42.694;23.600;2023-06-24T07:52:36;95271.47;;;31.21;54.48
40245;BME280;25963;42.694;23.600;2023-06-24T07:55:04;95274.44;;;31.16;55.19
40245;BME280;25963;42.694;23.600;2023-06-24T07:57:31;95255.69;;;31.27;58.44
40245;BME280;25963;42.694;23.600;2023-06-24T07:59:56;95263.84;;;31.99;61.84
40245;BME280;25963;42.694;23.600;2023-06-24T08:02:22;95268.53;;;31.70;53.63
40245;BME280;25963;42.694;23.600;2023-06-24T08:04:49;95268.41;;;32.26;55.82
40245;BME280;25963;42.694;23.600;2023-06-24T08:07:15;95265.22;;;32.40;55.29
40245;BME280;25963;42.694;23.600;2023-06-24T08:09:40;95266.63;;;32.50;51.03
40245;BME280;25963;42.694;23.600;2023-06-24T08:12:06;95267.38;;;32.66;51.93
40245;BME280;25963;42.694;23.600;2023-06-24T08:14:31;95278.41;;;32.54;51.25
40245;BME280;25963;42.694;23.600;2023-06-24T08:16:57;95273.25;;;32.17;52.44
40245;BME280;25963;42.694;23.600;2023-06-24T08:19:23;95267.78;;;32.17;53.54
40245;BME280;25963;42.694;23.600;2023-06-24T08:21:48;95276.47;;;32.55;54.92
40245;BME280;25963;42.694;23.600;2023-06-24T08:24:14;95267.25;;;32.79;56.69
40245;BME280;25963;42.694;23.600;2023-06-24T08:26:39;95273.34;;;33.07;53.97
40245;BME280;25963;42.694;23.600;2023-06-24T08:29:05;95264.81;;;33.28;49.81
40245;BME280;25963;42.694;23.600;2023-06-24T08:31:31;95269.25;;;32.82;51.74
40245;BME280;25963;42.694;23.600;2023-06-24T08:33:59;95262.69;;;32.00;48.77
40245;BME280;25963;42.694;23.600;2023-06-24T08:36:27;95252.84;;;32.11;51.56
40245;BME280;25963;42.694;23.600;2023-06-24T08:38:53;95258.13;;;32.71;50.74
40245;BME280;25963;42.694;23.600;2023-06-24T08:41:18;95259.06;;;32.27;51.49
40245;BME280;25963;42.694;23.600;2023-06-24T08:43:44;95251.56;;;32.24;53.55
40245;BME280;25963;42.694;23.600;2023-06-24T08:46:09;95252.66;;;32.71;56.78
40245;BME280;25963;42.694;23.600;2023-06-24T08:48:39;95242.94;;;33.28;54.69
40245;BME280;25963;42.694;23.600;2023-06-24T08:51:07;95228.88;;;33.49;54.85
40245;BME280;25963;42.694;23.600;2023-06-24T08:53:33;95232.69;;;33.64;53.90
40245;BME280;25963;42.694;23.600;2023-06-24T08:55:59;95218.50;;;33.16;52.13
40245;BME280;25963;42.694;23.600;2023-06-24T08:58:25;95237.00;;;33.88;49.07
40245;BME280;25963;42.694;23.600;2023-06-24T09:00:51;95237.72;;;33.85;45.37
40245;BME280;25963;42.694;23.600;2023-06-24T09:03:16;95231.97;;;34.40;56.20
40245;BME280;25963;42.694;23.600;2023-06-24T09:05:42;95219.84;;;33.91;47.06
40245;BME280;25963;42.694;23.600;2023-06-24T09:08:09;95230.13;;;33.98;47.78
40245;BME280;25963;42.694;23.600;2023-06-24T09:10:36;95218.88;;;34.26;54.71
40245;BME280;25963;42.694;23.600;2023-06-24T09:13:03;95221.94;;;34.74;46.86
40245;BME280;25963;42.694;23.600;2023-06-24T09:15:32;95214.09;;;34.76;50.07
40245;BME280;25963;42.694;23.600;2023-06-24T09:17:58;95215.16;;;34.94;57.18
40245;BME280;25963;42.694;23.600;2023-06-24T09:20:29;95214.78;;;34.66;45.33
40245;BME280;25963;42.694;23.600;2023-06-24T09:23:03;95223.66;;;34.33;44.75
40245;BME280;25963;42.694;23.600;2023-06-24T09:25:29;95222.34;;;34.49;54.59
40245;BME280;25963;42.694;23.600;2023-06-24T09:27:59;95219.34;;;34.58;48.50
40245;BME280;25963;42.694;23.600;2023-06-24T09:30:25;95200.84;;;33.33;53.76
40245;BME280;25963;42.694;23.600;2023-06-24T09:32:52;95222.88;;;34.05;46.66
40245;BME280;25963;42.694;23.600;2023-06-24T09:35:19;95232.72;;;34.63;43.48
40245;BME280;25963;42.694;23.600;2023-06-24T09:37:55;95228.72;;;35.14;39.85
40245;BME280;25963;42.694;23.600;2023-06-24T09:40:22;95230.94;;;35.38;45.97
40245;BME280;25963;42.694;23.600;2023-06-24T09:42:58;95217.53;;;35.30;41.22
40245;BME280;25963;42.694;23.600;2023-06-24T09:45:29;95234.13;;;34.80;42.51
40245;BME280;25963;42.694;23.600;2023-06-24T09:47:56;95234.47;;;35.39;45.24
40245;BME280;25963;42.694;23.600;2023-06-24T09:50:23;95231.28;;;35.33;42.06
40245;BME280;25963;42.694;23.600;2023-06-24T09:52:51;95227.31;;;35.27;40.81
40245;BME280;25963;42.694;23.600;2023-06-24T09:55:17;95220.59;;;35.58;45.26
40245;BME280;25963;42.694;23.600;2023-06-24T09:57:49;95210.97;;;35.41;40.63
40245;BME280;25963;42.694;23.600;2023-06-24T10:00:18;95224.22;;;35.02;40.62
40245;BME280;25963;42.694;23.600;2023-06-24T10:02:44;95228.38;;;35.19;45.69
40245;BME280;25963;42.694;23.600;2023-06-24T10:05:11;95225.34;;;35.28;41.94
40245;BME280;25963;42.694;23.600;2023-06-24T10:07:39;95220.59;;;35.58;39.56
40245;BME280;25963;42.694;23.600;2023-06-24T10:10:05;95223.97;;;35.85;42.30
40245;BME280;25963;42.694;23.600;2023-06-24T10:12:31;95194.22;;;35.09;40.47
40245;BME280;25963;42.694;23.600;2023-06-24T10:14:58;95220.44;;;34.53;40.84
40245;BME280;25963;42.694;23.600;2023-06-24T10:17:24;95217.63;;;34.46;42.48
40245;BME280;25963;42.694;23.600;2023-06-24T10:19:52;95206.44;;;34.85;40.09
40245;BME280;25963;42.694;23.600;2023-06-24T10:22:21;95200.72;;;35.31;38.25
40245;BME280;25963;42.694;23.600;2023-06-24T10:24:47;95199.44;;;35.59;42.51
40245;BME280;25963;42.694;23.600;2023-06-24T10:27:17;95182.47;;;35.50;38.77
40245;BME280;25963;42.694;23.600;2023-06-24T10:29:46;95176.53;;;35.44;37.09
40245;BME280;25963;42.694;23.600;2023-06-24T10:32:12;95158.34;;;35.25;37.11
40245;BME280;25963;42.694;23.600;2023-06-24T10:37:22;95177.72;;;34.49;38.23
40245;BME280;25963;42.694;23.600;2023-06-24T10:39:56;95153.47;;;35.08;44.19
40245;BME280;25963;42.694;23.600;2023-06-24T10:44:58;95138.94;;;35.44;41.47
40245;BME280;25963;42.694;23.600;2023-06-24T10:47:26;95145.13;;;34.67;42.82
40245;BME280;25963;42.694;23.600;2023-06-24T10:49:52;95134.63;;;34.42;44.36
40245;BME280;25963;42.694;23.600;2023-06-24T10:52:22;95134.03;;;34.26;41.11
40245;BME280;25963;42.694;23.600;2023-06-24T10:54:48;95130.78;;;34.47;42.49
40245;BME280;25963;42.694;23.600;2023-06-24T10:57:14;95127.66;;;34.48;44.98
40245;BME280;25963;42.694;23.600;2023-06-24T10:59:42;95131.03;;;34.65;40.77
40245;BME280;25963;42.694;23.600;2023-06-24T11:02:14;95130.56;;;34.93;39.11
40245;BME280;25963;42.694;23.600;2023-06-24T11:05:03;95129.78;;;34.92;40.16
40245;BME280;25963;42.694;23.600;2023-06-24T11:07:34;95133.84;;;34.72;39.86
40245;BME280;25963;42.694;23.600;2023-06-24T11:12:32;95122.06;;;33.84;39.21
40245;BME280;25963;42.694;23.600;2023-06-24T11:14:59;95110.66;;;33.33;44.82
40245;BME280;25963;42.694;23.600;2023-06-24T11:17:25;95107.38;;;33.24;41.50
40245;BME280;25963;42.694;23.600;2023-06-24T11:19:55;95116.78;;;33.72;39.86
40245;BME280;25963;42.694;23.600;2023-06-24T11:22:22;95116.34;;;34.20;41.24
40245;BME280;25963;42.694;23.600;2023-06-24T11:24:48;95115.41;;;34.39;38.14
40245;BME280;25963;42.694;23.600;2023-06-24T11:27:13;95111.84;;;33.81;39.10
40245;BME280;25963;42.694;23.600;2023-06-24T11:29:39;95118.31;;;33.70;44.76
40245;BME280;25963;42.694;23.600;2023-06-24T11:32:07;95116.25;;;34.16;42.40
40245;BME280;25963;42.694;23.600;2023-06-24T11:34:34;95117.66;;;34.03;38.62
40245;BME280;25963;42.694;23.600;2023-06-24T11:37:12;95104.63;;;33.70;37.88
40245;BME280;25963;42.694;23.600;2023-06-24T11:39:38;95104.13;;;33.87;38.86
40245;BME280;25963;42.694;23.600;2023-06-24T11:42:06;95123.91;;;33.11;41.53
40245;BME280;25963;42.694;23.600;2023-06-24T11:44:32;95120.97;;;33.43;39.88
40245;BME280;25963;42.694;23.600;2023-06-24T11:47:07;95100.16;;;33.58;42.38
40245;BME280;25963;42.694;23.600;2023-06-24T11:49:50;95124.00;;;33.84;43.16
40245;BME280;25963;42.694;23.600;2023-06-24T11:52:17;95120.56;;;33.91;43.79
40245;BME280;25963;42.694;23.600;2023-06-24T11:54:42;95119.22;;;34.04;42.34
40245;BME280;25963;42.694;23.600;2023-06-24T11:57:10;95107.72;;;33.95;38.92
40245;BME280;25963;42.694;23.600;2023-06-24T11:59:38;95104.44;;;34.08;39.85
40245;BME280;25963;42.694;23.600;2023-06-24T12:02:03;95109.19;;;34.12;44.28
40245;BME280;25963;42.694;23.600;2023-06-24T12:04:33;95096.44;;;34.23;43.94
40245;BME280;25963;42.694;23.600;2023-06-24T12:06:59;95089.97;;;34.08;39.93
40245;BME280;25963;42.694;23.600;2023-06-24T12:09:25;95083.38;;;34.13;45.14
40245;BME280;25963;42.694;23.600;2023-06-24T12:11:52;95086.31;;;34.27;47.05
40245;BME280;25963;42.694;23.600;2023-06-24T12:14:17;95083.69;;;33.81;41.21
40245;BME280;25963;42.694;23.600;2023-06-24T12:16:43;95079.59;;;33.94;42.22
40245;BME280;25963;42.694;23.600;2023-06-24T12:19:08;95061.59;;;33.67;43.74
40245;BME280;25963;42.694;23.600;2023-06-24T12:21:34;95057.22;;;33.89;41.00
40245;BME280;25963;42.694;23.600;2023-06-24T12:24:01;95044.66;;;33.84;40.93
40245;BME280;25963;42.694;23.600;2023-06-24T12:26:26;95047.44;;;34.14;42.55
40245;BME280;25963;42.694;23.600;2023-06-24T12:28:55;95045.78;;;34.06;37.35
40245;BME280;25963;42.694;23.600;2023-06-24T12:31:24;95055.03;;;34.28;40.18
40245;BME280;25963;42.694;23.600;2023-06-24T12:33:50;95045.44;;;34.41;41.61
40245;BME280;25963;42.694;23.600;2023-06-24T12:36:17;95062.09;;;34.59;38.30
40245;BME280;25963;42.694;23.600;2023-06-24T12:38:43;95071.63;;;34.42;39.86
40245;BME280;25963;42.694;23.600;2023-06-24T12:41:08;95081.38;;;34.40;42.47
40245;BME280;25963;42.694;23.600;2023-06-24T12:43:33;95088.78;;;34.66;45.61
40245;BME280;25963;42.694;23.600;2023-06-24T12:45:59;95089.38;;;34.22;43.98
40245;BME280;25963;42.694;23.600;2023-06-24T12:48:24;95100.16;;;34.38;52.96
40245;BME280;25963;42.694;23.600;2023-06-24T12:50:50;95098.91;;;34.31;47.51
40245;BME280;25963;42.694;23.600;2023-06-24T12:53:21;95102.97;;;34.15;44.47
40245;BME280;25963;42.694;23.600;2023-06-24T12:55:47;95116.19;;;34.09;45.05
40245;BME280;25963;42.694;23.600;2023-06-24T12:58:19;95109.88;;;34.05;52.74
40245;BME280;25963;42.694;23.600;2023-06-24T13:00:44;95107.91;;;33.79;47.30
40245;BME280;25963;42.694;23.600;2023-06-24T13:03:10;95100.03;;;33.51;49.42
40245;BME280;25963;42.694;23.600;2023-06-24T13:05:35;95093.91;;;33.38;51.75
40245;BME280;25963;42.694;23.600;2023-06-24T13:08:01;95087.91;;;33.29;51.78
40245;BME280;25963;42.694;23.600;2023-06-24T13:10:26;95079.06;;;32.93;51.42